createdAt,value
2023-10-06T00:02:29.878Z,94851.31
2023-10-06T00:04:57.106Z,94847.00
2023-10-06T00:07:25.162Z,94849.59
2023-10-06T00:09:54.629Z,94868.81
2023-10-06T00:12:21.615Z,94856.06
2023-10-06T00:14:51.479Z,94872.47
2023-10-06T00:17:18.899Z,94851.09
2023-10-06T00:19:46.679Z,94855.63
2023-10-06T00:22:16.223Z,94870.31
2023-10-06T00:24:45.678Z,94858.59
2023-10-06T00:27:12.655Z,94851.75
2023-10-06T00:29:39.867Z,94849.97
2023-10-06T00:32:27.305Z,94861.25
2023-10-06T00:34:56.555Z,94846.88
2023-10-06T00:37:26.661Z,94853.41
2023-10-06T00:39:57.287Z,94836.06
2023-10-06T00:42:23.972Z,94855.94
2023-10-06T00:44:50.951Z,94842.63
2023-10-06T00:47:18.491Z,94858.75
2023-10-06T00:49:45.871Z,94832.31
2023-10-06T00:52:13.598Z,94844.06
2023-10-06T00:54:45.746Z,94859.56
2023-10-06T00:57:13.563Z,94838.56
2023-10-06T00:59:42.532Z,94845.56
2023-10-06T01:02:12.904Z,94767.53
2023-10-06T01:04:47.152Z,94839.91
2023-10-06T01:07:18.288Z,94840.94
2023-10-06T01:09:58.538Z,94844.50
2023-10-06T01:12:26.322Z,94833.09
2023-10-06T01:15:06.345Z,94834.03
2023-10-06T01:17:33.833Z,94844.06
2023-10-06T01:20:01.093Z,94867.50
2023-10-06T01:22:31.760Z,94845.00
2023-10-06T01:25:04.390Z,94841.09
2023-10-06T01:27:30.835Z,94849.25
2023-10-06T01:30:16.375Z,94850.28
2023-10-06T01:32:46.855Z,94850.91
2023-10-06T01:35:14.288Z,94849.31
2023-10-06T01:37:45.232Z,94841.84
2023-10-06T01:40:36.244Z,94857.84
2023-10-06T01:43:10.641Z,94854.88
2023-10-06T01:45:44.888Z,94858.13
2023-10-06T01:48:14.857Z,94843.78
2023-10-06T01:50:42.449Z,94862.75
2023-10-06T01:53:12.237Z,94836.06
2023-10-06T01:55:39.669Z,94841.97
2023-10-06T01:58:08.365Z,94850.28
2023-10-06T02:00:37.089Z,94837.13
2023-10-06T02:03:12.885Z,94829.63
2023-10-06T02:05:40.052Z,94833.22
2023-10-06T02:08:16.034Z,94812.09
2023-10-06T02:10:44.418Z,94834.28
2023-10-06T02:13:11.177Z,94823.38
2023-10-06T02:15:37.618Z,94815.06
2023-10-06T02:18:08.254Z,94813.19
2023-10-06T02:20:36.111Z,94810.94
2023-10-06T02:23:04.528Z,94809.28
2023-10-06T02:25:32.714Z,94823.44
2023-10-06T02:28:01.072Z,94806.34
2023-10-06T02:30:38.733Z,94794.97
2023-10-06T02:33:08.777Z,94817.13
2023-10-06T02:35:46.871Z,94805.06
2023-10-06T02:38:13.462Z,94812.59
2023-10-06T02:40:46.174Z,94815.56
2023-10-06T02:43:21.598Z,94806.78
2023-10-06T02:45:48.543Z,94809.56
2023-10-06T02:48:23.130Z,94821.78
2023-10-06T02:50:55.184Z,94800.94
2023-10-06T02:53:22.481Z,94806.78
2023-10-06T02:55:56.692Z,94817.22
2023-10-06T02:58:31.872Z,94825.19
2023-10-06T03:00:59.228Z,94830.88
2023-10-06T03:03:29.502Z,94823.22
2023-10-06T03:05:57.211Z,94814.28
2023-10-06T03:08:30.835Z,94815.91
2023-10-06T03:10:57.414Z,94797.03
2023-10-06T03:13:44.747Z,94816.06
2023-10-06T03:16:12.170Z,94818.81
2023-10-06T03:18:39.697Z,94810.66
2023-10-06T03:21:14.794Z,94814.91
2023-10-06T03:23:45.264Z,94819.09
2023-10-06T03:26:31.822Z,94819.38
2023-10-06T03:29:03.947Z,94819.50
2023-10-06T03:31:45.829Z,94823.34
2023-10-06T03:34:17.648Z,94796.97
2023-10-06T03:36:52.475Z,94793.38
2023-10-06T03:39:25.050Z,94792.22
2023-10-06T03:41:56.269Z,94808.63
2023-10-06T03:44:30.886Z,94822.25
2023-10-06T03:47:01.834Z,94794.56
2023-10-06T03:49:28.861Z,94806.00
2023-10-06T03:51:58.020Z,94806.03
2023-10-06T03:54:24.903Z,94797.28
2023-10-06T03:56:51.488Z,94804.75
2023-10-06T03:59:18.032Z,94772.16
2023-10-06T04:01:47.349Z,94801.47
2023-10-06T04:04:16.437Z,94810.25
2023-10-06T04:06:43.183Z,94806.66
2023-10-06T04:09:12.859Z,94782.91
2023-10-06T04:11:39.479Z,94705.38
2023-10-06T04:14:06.857Z,94805.72
2023-10-06T04:16:46.823Z,94802.25
2023-10-06T04:19:16.520Z,94802.69
2023-10-06T04:21:43.645Z,94807.44
2023-10-06T04:24:10.949Z,94811.44
2023-10-06T04:26:38.004Z,94802.88
2023-10-06T04:29:06.554Z,94821.22
2023-10-06T04:31:34.247Z,94798.34
2023-10-06T04:34:02.378Z,94806.72
2023-10-06T04:36:28.928Z,94807.66
2023-10-06T04:38:57.854Z,94804.06
2023-10-06T04:41:24.674Z,94803.03
2023-10-06T04:43:53.190Z,94816.28
2023-10-06T04:46:20.111Z,94818.78
2023-10-06T04:48:49.055Z,94810.63
2023-10-06T04:51:16.072Z,94807.97
2023-10-06T04:53:42.999Z,94812.81
2023-10-06T04:56:09.927Z,94815.34
2023-10-06T04:58:43.468Z,94780.41
2023-10-06T05:01:12.152Z,94800.28
2023-10-06T05:03:45.020Z,94796.75
2023-10-06T05:06:22.362Z,94807.66
2023-10-06T05:08:51.188Z,94790.22
2023-10-06T05:11:19.596Z,94829.13
2023-10-06T05:13:50.448Z,94823.28
2023-10-06T05:16:20.209Z,94800.44
2023-10-06T05:18:47.598Z,94804.66
2023-10-06T05:21:14.049Z,94805.91
2023-10-06T05:23:40.476Z,94808.34
2023-10-06T05:26:11.705Z,94786.31
2023-10-06T05:28:38.603Z,94798.84
2023-10-06T05:31:08.080Z,94816.56
2023-10-06T05:33:34.973Z,94790.47
2023-10-06T05:36:10.946Z,94808.84
2023-10-06T05:38:38.570Z,94807.38
2023-10-06T05:41:06.767Z,94811.28
2023-10-06T05:43:33.220Z,94813.88
2023-10-06T05:45:59.883Z,94813.22
2023-10-06T05:48:31.408Z,94790.66
2023-10-06T05:51:06.056Z,94808.13
2023-10-06T05:53:40.164Z,94819.75
2023-10-06T05:56:10.053Z,94800.44
2023-10-06T05:58:38.815Z,94797.19
2023-10-06T06:01:12.291Z,94802.06
2023-10-06T06:03:51.162Z,94705.22
2023-10-06T06:06:23.447Z,94798.16
2023-10-06T06:08:50.502Z,94807.88
2023-10-06T06:11:17.766Z,94818.47
2023-10-06T06:13:44.732Z,94804.31
2023-10-06T06:16:11.799Z,94802.75
2023-10-06T06:18:43.912Z,94810.31
2023-10-06T06:21:12.055Z,94799.91
2023-10-06T06:23:38.730Z,94804.31
2023-10-06T06:26:05.332Z,94817.06
2023-10-06T06:28:31.884Z,94809.31
2023-10-06T06:31:05.006Z,94823.16
2023-10-06T06:33:33.757Z,94816.88
2023-10-06T06:36:01.606Z,94813.69
2023-10-06T06:38:28.121Z,94837.53
2023-10-06T06:40:54.922Z,94823.22
2023-10-06T06:43:22.599Z,94822.59
2023-10-06T06:45:49.057Z,94813.56
2023-10-06T06:48:17.981Z,94815.88
2023-10-06T06:50:45.144Z,94827.47
2023-10-06T06:53:12.456Z,94827.47
2023-10-06T06:55:40.545Z,94819.28
2023-10-06T06:58:12.170Z,94832.31
2023-10-06T07:00:41.099Z,94826.19
2023-10-06T07:03:07.929Z,94825.88
2023-10-06T07:05:37.119Z,94840.34
2023-10-06T07:08:07.059Z,94864.31
2023-10-06T07:10:34.411Z,94853.94
2023-10-06T07:13:02.078Z,94841.25
2023-10-06T07:15:31.324Z,94842.22
2023-10-06T07:17:59.377Z,94838.34
2023-10-06T07:20:31.451Z,94848.78
2023-10-06T07:23:05.062Z,94860.88
2023-10-06T07:25:32.408Z,94847.50
2023-10-06T07:28:00.734Z,94861.19
2023-10-06T07:30:29.752Z,94869.31
2023-10-06T07:32:56.813Z,94864.75
2023-10-06T07:35:32.157Z,94844.59
2023-10-06T07:37:59.559Z,94856.94
2023-10-06T07:40:28.700Z,94846.16
2023-10-06T07:42:59.843Z,94849.09
2023-10-06T07:45:30.296Z,94839.31
2023-10-06T07:47:56.824Z,94853.00
2023-10-06T07:50:23.433Z,94857.84
2023-10-06T07:52:50.006Z,94847.38
2023-10-06T07:55:22.354Z,94851.91
2023-10-06T07:57:52.421Z,94835.56
2023-10-06T08:00:31.280Z,94840.44
2023-10-06T08:02:59.951Z,94856.69
2023-10-06T08:05:30.105Z,94848.69
2023-10-06T08:07:59.521Z,94839.50
2023-10-06T08:10:26.598Z,94837.53
2023-10-06T08:12:57.418Z,94856.34
2023-10-06T08:15:23.975Z,94839.72
2023-10-06T08:17:54.106Z,94850.94
2023-10-06T08:20:21.840Z,94846.53
2023-10-06T08:22:49.050Z,94840.50
2023-10-06T08:25:16.709Z,94828.78
2023-10-06T08:27:43.997Z,94851.78
2023-10-06T08:30:18.165Z,94841.50
2023-10-06T08:32:49.211Z,94841.25
2023-10-06T08:35:16.311Z,94850.81
2023-10-06T08:37:43.853Z,94847.03
2023-10-06T08:40:20.632Z,94830.56
2023-10-06T08:42:57.568Z,94845.88
2023-10-06T08:45:29.133Z,94835.09
2023-10-06T08:48:03.095Z,94843.50
2023-10-06T08:50:34.558Z,94838.88
2023-10-06T08:53:05.909Z,94834.16
2023-10-06T08:55:33.104Z,94833.03
2023-10-06T08:58:02.032Z,94835.53
2023-10-06T09:00:32.948Z,94825.56
2023-10-06T09:03:08.420Z,94828.09
2023-10-06T09:05:38.685Z,94831.38
2023-10-06T09:08:08.930Z,94839.94
2023-10-06T09:10:41.667Z,94835.94
2023-10-06T09:13:12.829Z,94822.19
2023-10-06T09:15:41.834Z,94824.38
2023-10-06T09:18:21.995Z,94821.81
2023-10-06T09:20:50.239Z,94811.63
2023-10-06T09:23:43.889Z,94823.81
2023-10-06T09:26:20.217Z,94807.66
2023-10-06T09:28:51.878Z,94823.50
2023-10-06T09:31:38.720Z,94822.31
2023-10-06T09:34:10.819Z,94803.31
2023-10-06T09:39:34.121Z,94815.50
2023-10-06T09:42:02.224Z,94814.09
2023-10-06T09:44:30.807Z,94804.78
2023-10-06T09:47:01.024Z,94809.81
2023-10-06T09:49:29.489Z,94788.75
2023-10-06T09:51:58.736Z,94806.59
2023-10-06T09:54:25.372Z,94786.25
2023-10-06T09:56:56.282Z,94786.66
2023-10-06T09:59:24.835Z,94782.03
2023-10-06T10:01:52.753Z,94786.63
2023-10-06T10:04:19.747Z,94780.22
2023-10-06T10:06:46.498Z,94790.31
2023-10-06T10:09:17.510Z,94800.72
2023-10-06T10:12:03.613Z,94785.16
2023-10-06T10:14:56.386Z,94795.13
2023-10-06T10:17:55.517Z,94792.72
2023-10-06T10:20:26.676Z,94785.06
2023-10-06T10:22:58.101Z,94773.16
2023-10-06T10:25:25.846Z,94780.44
2023-10-06T10:28:20.692Z,94781.44
2023-10-06T10:31:00.810Z,94794.28
2023-10-06T10:33:40.144Z,94778.44
2023-10-06T10:36:18.870Z,94791.22
2023-10-06T10:38:46.592Z,94778.88
2023-10-06T10:41:13.916Z,94772.41
2023-10-06T10:43:46.504Z,94779.59
2023-10-06T10:46:14.026Z,94773.25
2023-10-06T10:48:48.779Z,94775.34
2023-10-06T10:51:16.316Z,94772.41
2023-10-06T10:53:45.004Z,94780.06
2023-10-06T10:56:20.599Z,94780.25
2023-10-06T10:58:49.184Z,94770.75
2023-10-06T11:01:25.469Z,94775.56
2023-10-06T11:04:10.937Z,94772.16
2023-10-06T11:06:40.638Z,94759.97
2023-10-06T11:09:33.414Z,94753.34
2023-10-06T11:12:20.817Z,94751.50
2023-10-06T11:14:52.467Z,94747.41
2023-10-06T11:17:24.320Z,94731.00
2023-10-06T11:20:14.452Z,94758.00
2023-10-06T11:22:51.537Z,94748.63
2023-10-06T11:25:18.106Z,94738.81
2023-10-06T11:27:44.690Z,94739.84
2023-10-06T11:30:16.399Z,94722.72
2023-10-06T11:32:43.125Z,94735.16
2023-10-06T11:35:11.794Z,94727.50
2023-10-06T11:37:38.444Z,94743.53
2023-10-06T11:40:06.488Z,94741.69
2023-10-06T11:42:38.075Z,94708.53
2023-10-06T11:45:12.605Z,94728.31
2023-10-06T11:47:40.724Z,94730.72
2023-10-06T11:50:10.216Z,94719.66
2023-10-06T11:52:44.545Z,94728.75
2023-10-06T11:55:15.669Z,94704.00
2023-10-06T11:57:49.129Z,94697.47
2023-10-06T12:00:19.139Z,94718.16
2023-10-06T12:02:52.701Z,94705.06
2023-10-06T12:05:23.557Z,94699.63
2023-10-06T12:07:53.524Z,94695.97
2023-10-06T12:10:22.438Z,94696.94
2023-10-06T12:12:51.763Z,94693.00
2023-10-06T12:15:18.903Z,94691.81
2023-10-06T12:17:46.421Z,94688.84
2023-10-06T12:20:14.952Z,94686.84
2023-10-06T12:22:43.945Z,94680.19
2023-10-06T12:25:16.144Z,94677.53
2023-10-06T12:27:48.230Z,94673.84
2023-10-06T12:30:16.163Z,94681.28
2023-10-06T12:32:48.702Z,94668.78
2023-10-06T12:35:22.723Z,94673.53
2023-10-06T12:37:50.039Z,94652.78
2023-10-06T12:40:17.680Z,94664.78
2023-10-06T12:42:44.982Z,94671.47
2023-10-06T12:45:15.113Z,94670.66
2023-10-06T12:47:41.896Z,94656.56
2023-10-06T12:50:09.773Z,94667.84
2023-10-06T12:52:38.139Z,94654.94
2023-10-06T12:55:11.662Z,94664.78
2023-10-06T12:57:40.073Z,94662.34
2023-10-06T13:00:08.329Z,94646.88
2023-10-06T13:02:36.374Z,94653.16
2023-10-06T13:05:14.522Z,94655.31
2023-10-06T13:07:43.880Z,94647.34
2023-10-06T13:10:11.154Z,94644.09
2023-10-06T13:12:41.334Z,94660.34
2023-10-06T13:15:10.230Z,94645.16
2023-10-06T13:17:41.586Z,94653.78
2023-10-06T13:20:14.971Z,94641.69
2023-10-06T13:22:43.646Z,94633.31
2023-10-06T13:25:12.081Z,94653.13
2023-10-06T13:27:40.981Z,94637.84
2023-10-06T13:30:14.931Z,94644.38
2023-10-06T13:32:48.676Z,94643.09
2023-10-06T13:35:20.535Z,94629.66
2023-10-06T13:37:48.358Z,94611.56
2023-10-06T13:40:17.188Z,94626.94
2023-10-06T13:42:51.383Z,94639.81
2023-10-06T13:45:21.765Z,94646.09
2023-10-06T13:47:49.331Z,94635.91
2023-10-06T13:50:19.543Z,94632.88
2023-10-06T13:52:48.727Z,94634.59
2023-10-06T13:55:15.322Z,94605.41
2023-10-06T13:57:45.242Z,94620.09
2023-10-06T14:00:32.757Z,94640.88
2023-10-06T14:03:10.238Z,94642.13
2023-10-06T14:05:44.406Z,94623.72
2023-10-06T14:08:15.730Z,94633.25
2023-10-06T14:10:43.721Z,94618.41
2023-10-06T14:13:18.309Z,94626.31
2023-10-06T14:15:55.823Z,94619.06
2023-10-06T14:18:27.761Z,94630.03
2023-10-06T14:20:58.388Z,94626.31
2023-10-06T14:23:30.789Z,94612.19
2023-10-06T14:26:01.569Z,94592.75
2023-10-06T14:28:29.421Z,94629.19
2023-10-06T14:31:16.188Z,94637.59
2023-10-06T14:33:48.562Z,94622.69
2023-10-06T14:36:15.273Z,94612.38
2023-10-06T14:38:44.403Z,94616.03
2023-10-06T14:41:31.694Z,94631.94
2023-10-06T14:44:18.690Z,94636.75
2023-10-06T14:46:53.249Z,94614.88
2023-10-06T14:49:24.971Z,94603.69
2023-10-06T14:51:54.699Z,94625.94
2023-10-06T14:54:21.503Z,94614.44
2023-10-06T14:56:50.334Z,94608.69
2023-10-06T14:59:20.053Z,94605.91
2023-10-06T15:01:48.542Z,94604.25
2023-10-06T15:04:15.244Z,94619.22
2023-10-06T15:06:42.464Z,94621.13
2023-10-06T15:09:09.921Z,94607.53
2023-10-06T15:11:41.445Z,94607.03
2023-10-06T15:14:12.385Z,94622.19
2023-10-06T15:16:42.238Z,94603.19
2023-10-06T15:19:09.293Z,94600.66
2023-10-06T15:21:40.674Z,94610.25
2023-10-06T15:24:11.905Z,94608.75
2023-10-06T15:26:49.487Z,94616.03
2023-10-06T15:29:21.162Z,94600.03
2023-10-06T15:31:51.960Z,94621.06
2023-10-06T15:34:19.187Z,94611.19
2023-10-06T15:36:45.749Z,94607.72
2023-10-06T15:39:19.063Z,94587.91
2023-10-06T15:41:50.100Z,94597.63
2023-10-06T15:44:18.054Z,94574.13
2023-10-06T15:46:46.170Z,94600.34
2023-10-06T15:49:15.160Z,94598.06
2023-10-06T15:51:45.135Z,94623.91
2023-10-06T15:54:11.697Z,94602.75
2023-10-06T15:56:41.869Z,94611.88
2023-10-06T15:59:19.420Z,94608.13
2023-10-06T16:01:48.391Z,94614.09
2023-10-06T16:04:16.100Z,94614.75
2023-10-06T16:06:45.139Z,94615.44
2023-10-06T16:09:17.087Z,94604.72
2023-10-06T16:11:44.144Z,94614.03
2023-10-06T16:14:10.791Z,94611.44
2023-10-06T16:16:38.352Z,94602.03
2023-10-06T16:19:05.425Z,94613.50
2023-10-06T16:21:35.645Z,94611.53
2023-10-06T16:24:06.164Z,94620.03
2023-10-06T16:26:32.901Z,94606.63
2023-10-06T16:28:59.753Z,94624.03
2023-10-06T16:31:30.525Z,94624.31
2023-10-06T16:33:58.152Z,94635.59
2023-10-06T16:36:24.730Z,94624.31
2023-10-06T16:38:51.973Z,94625.72
2023-10-06T16:41:22.296Z,94626.03
2023-10-06T16:43:57.016Z,94651.50
2023-10-06T16:46:23.952Z,94622.66
2023-10-06T16:48:50.570Z,94623.78
2023-10-06T16:51:18.985Z,94635.19
2023-10-06T16:53:48.960Z,94634.81
2023-10-06T16:56:15.728Z,94643.34
2023-10-06T16:58:42.606Z,94539.16
2023-10-06T17:01:09.478Z,94634.88
2023-10-06T17:03:36.221Z,94632.47
2023-10-06T17:06:05.130Z,94637.78
2023-10-06T17:08:32.062Z,94632.56
2023-10-06T17:11:16.020Z,94655.25
2023-10-06T17:13:43.567Z,94657.47
2023-10-06T17:16:10.642Z,94656.47
2023-10-06T17:18:37.569Z,94645.16
2023-10-06T17:21:07.960Z,94668.59
2023-10-06T17:23:35.112Z,94669.38
2023-10-06T17:26:01.824Z,94655.56
2023-10-06T17:28:29.073Z,94648.22
2023-10-06T17:30:55.612Z,94661.16
2023-10-06T17:33:22.621Z,94676.47
2023-10-06T17:35:49.053Z,94656.09
2023-10-06T17:38:17.419Z,94673.03
2023-10-06T17:40:43.864Z,94673.41
2023-10-06T17:43:13.044Z,94669.22
2023-10-06T17:45:39.687Z,94665.94
2023-10-06T17:48:07.053Z,94687.06
2023-10-06T17:50:33.982Z,94667.56
2023-10-06T17:53:00.708Z,94672.13
2023-10-06T17:55:32.633Z,94668.38
2023-10-06T17:57:59.624Z,94677.38
2023-10-06T18:00:27.115Z,94675.25
2023-10-06T18:02:53.843Z,94580.53
2023-10-06T18:05:21.859Z,94682.75
2023-10-06T18:07:48.548Z,94671.06
2023-10-06T18:10:15.097Z,94674.66
2023-10-06T18:12:43.076Z,94697.25
2023-10-06T18:15:09.810Z,94682.22
2023-10-06T18:17:38.822Z,94689.19
2023-10-06T18:20:09.106Z,94683.38
2023-10-06T18:22:37.334Z,94696.97
2023-10-06T18:25:04.273Z,94683.13
2023-10-06T18:27:30.711Z,94679.84
2023-10-06T18:29:57.147Z,94701.69
2023-10-06T18:32:23.610Z,94687.66
2023-10-06T18:34:50.236Z,94676.72
2023-10-06T18:37:17.690Z,94706.56
2023-10-06T18:39:47.561Z,94711.38
2023-10-06T18:42:16.817Z,94714.66
2023-10-06T18:44:43.279Z,94737.47
2023-10-06T18:47:11.374Z,94715.44
2023-10-06T18:49:37.941Z,94718.03
2023-10-06T18:52:04.947Z,94731.88
2023-10-06T18:54:32.497Z,94686.75
2023-10-06T18:56:59.047Z,94720.84
2023-10-06T18:59:26.977Z,94731.16
2023-10-06T19:01:54.538Z,94730.03
2023-10-06T19:04:21.093Z,94741.91
2023-10-06T19:06:48.584Z,94745.56
2023-10-06T19:09:16.826Z,94732.94
2023-10-06T19:11:46.235Z,94747.16
2023-10-06T19:14:20.104Z,94729.50
2023-10-06T19:16:58.145Z,94740.69
2023-10-06T19:19:27.699Z,94738.59
2023-10-06T19:21:55.398Z,94745.88
2023-10-06T19:24:21.882Z,94731.84
2023-10-06T19:26:51.967Z,94725.13
2023-10-06T19:29:24.786Z,94756.25
2023-10-06T19:32:01.022Z,94755.88
2023-10-06T19:34:41.098Z,94745.22
2023-10-06T19:37:12.109Z,94748.25
2023-10-06T19:39:38.893Z,94756.00
2023-10-06T19:42:05.762Z,94743.03
2023-10-06T19:44:36.974Z,94730.81
2023-10-06T19:47:06.403Z,94733.66
2023-10-06T19:49:38.615Z,94725.06
2023-10-06T19:52:09.359Z,94738.94
2023-10-06T19:54:37.089Z,94743.75
2023-10-06T19:57:03.948Z,94733.81
2023-10-06T19:59:33.575Z,94734.28
2023-10-06T20:02:01.899Z,94739.97
2023-10-06T20:04:28.575Z,94748.22
2023-10-06T20:06:55.512Z,94739.25
2023-10-06T20:09:25.035Z,94715.34
2023-10-06T20:11:51.876Z,94750.41
2023-10-06T20:14:19.144Z,94736.59
2023-10-06T20:16:45.675Z,94754.16
2023-10-06T20:19:12.655Z,94721.41
2023-10-06T20:21:40.513Z,94739.28
2023-10-06T20:24:09.817Z,94735.78
2023-10-06T20:26:36.680Z,94723.94
2023-10-06T20:29:10.383Z,94733.91
2023-10-06T20:55:48.279Z,94747.09
2023-10-06T20:58:15.753Z,94747.44
2023-10-06T21:00:42.278Z,94730.53
2023-10-06T21:03:09.723Z,94753.63
2023-10-06T21:05:36.457Z,94747.13
2023-10-06T21:08:03.024Z,94764.31
2023-10-06T21:10:29.556Z,94742.91
2023-10-06T21:12:56.026Z,94753.34
2023-10-06T21:15:24.603Z,94751.38
2023-10-06T21:17:55.331Z,94749.44
2023-10-06T21:20:23.434Z,94759.84
2023-10-06T21:22:49.896Z,94762.91
2023-10-06T21:25:18.285Z,94756.94
2023-10-06T21:27:46.567Z,94769.31
2023-10-06T21:30:17.076Z,94760.13
2023-10-06T21:32:45.375Z,94752.97
2023-10-06T21:35:13.660Z,94782.28
2023-10-06T21:37:40.805Z,94758.50
2023-10-06T21:40:09.615Z,94769.28
2023-10-06T21:42:36.625Z,94774.69
2023-10-06T21:45:04.961Z,94781.03
2023-10-06T21:47:33.385Z,94763.78
2023-10-06T21:50:00.288Z,94786.25
2023-10-06T21:52:30.175Z,94783.66
2023-10-06T21:54:57.422Z,94775.81
2023-10-06T21:57:26.366Z,94773.88
2023-10-06T21:59:53.914Z,94792.13
2023-10-06T22:02:20.523Z,94777.81
2023-10-06T22:04:48.240Z,94770.97
2023-10-06T22:07:15.958Z,94783.69
2023-10-06T22:09:42.882Z,94796.53
2023-10-06T22:12:10.477Z,94777.81
2023-10-06T22:14:37.440Z,94788.25
2023-10-06T22:17:05.755Z,94781.72
2023-10-06T22:19:36.568Z,94788.41
2023-10-06T22:22:03.636Z,94783.03
2023-10-06T22:24:31.190Z,94776.34
2023-10-06T22:27:07.771Z,94770.00
2023-10-06T22:29:35.178Z,94765.13
2023-10-06T22:32:01.706Z,94760.88
2023-10-06T22:34:28.391Z,94762.81
2023-10-06T22:36:59.149Z,94761.50
2023-10-06T22:39:31.700Z,94772.56
2023-10-06T22:41:58.169Z,94781.69
2023-10-06T22:44:25.192Z,94772.91
2023-10-06T22:46:52.610Z,94761.16
2023-10-06T22:49:22.464Z,94776.78
2023-10-06T22:51:50.669Z,94760.50
2023-10-06T22:54:18.559Z,94753.94
2023-10-06T22:56:45.049Z,94743.25
2023-10-06T22:59:12.478Z,94757.22
2023-10-06T23:01:39.488Z,94771.34
2023-10-06T23:04:07.962Z,94758.84
2023-10-06T23:06:34.678Z,94768.22
2023-10-06T23:09:01.180Z,94756.19
2023-10-06T23:11:27.830Z,94759.75
2023-10-06T23:13:54.333Z,94754.28
2023-10-06T23:16:20.963Z,94747.69
2023-10-06T23:18:47.543Z,94746.72
2023-10-06T23:21:14.868Z,94763.31
2023-10-06T23:23:42.827Z,94747.41
2023-10-06T23:26:09.946Z,94764.81
2023-10-06T23:28:37.705Z,94750.94
2023-10-06T23:31:04.588Z,94743.72
2023-10-06T23:33:31.768Z,94752.16
2023-10-06T23:35:59.300Z,94741.09
2023-10-06T23:38:26.228Z,94745.63
2023-10-06T23:40:53.630Z,94754.50
2023-10-06T23:43:23.829Z,94730.69
2023-10-06T23:45:51.595Z,94750.66
2023-10-06T23:48:19.539Z,94751.59
2023-10-06T23:50:59.863Z,94684.81
2023-10-06T23:53:29.643Z,94757.25
2023-10-06T23:56:01.246Z,94756.34
2023-10-06T23:58:33.495Z,94732.72
